createdAt,value
2023-07-19T00:01:56.108Z,4.30
2023-07-19T00:04:28.474Z,11.90
2023-07-19T00:07:00.484Z,10.20
2023-07-19T00:09:32.693Z,6.10
2023-07-19T00:12:06.534Z,11.70
2023-07-19T00:14:38.854Z,12.50
2023-07-19T00:17:10.840Z,8.80
2023-07-19T00:19:43.189Z,7.10
2023-07-19T00:22:15.055Z,7.40
2023-07-19T00:24:47.348Z,7.80
2023-07-19T00:27:19.282Z,6.80
2023-07-19T00:29:51.438Z,8.00
2023-07-19T00:32:23.444Z,6.30
2023-07-19T00:34:55.410Z,9.10
2023-07-19T00:37:27.279Z,8.30
2023-07-19T00:39:59.958Z,10.00
2023-07-19T00:42:31.939Z,5.90
2023-07-19T00:45:04.448Z,8.80
2023-07-19T00:47:37.298Z,8.50
2023-07-19T00:50:10.934Z,5.10
2023-07-19T00:52:43.245Z,8.80
2023-07-19T00:55:15.736Z,8.10
2023-07-19T00:57:47.683Z,6.10
2023-07-19T01:00:21.038Z,5.40
2023-07-19T01:02:52.987Z,6.20
2023-07-19T01:05:25.558Z,8.10
2023-07-19T01:07:59.956Z,5.30
2023-07-19T01:10:32.576Z,6.80
2023-07-19T01:13:09.610Z,11.50
2023-07-19T01:15:42.533Z,7.50
2023-07-19T01:18:14.688Z,4.00
2023-07-19T01:20:47.052Z,8.40
2023-07-19T01:23:18.871Z,9.30
2023-07-19T01:25:50.837Z,4.70
2023-07-19T01:28:22.827Z,6.60
2023-07-19T01:30:55.107Z,5.30
2023-07-19T01:33:33.937Z,4.90
2023-07-19T01:36:07.183Z,8.50
2023-07-19T01:38:39.207Z,5.70
2023-07-19T01:41:11.302Z,6.20
2023-07-19T01:43:43.080Z,5.70
2023-07-19T01:46:15.378Z,4.70
2023-07-19T01:48:47.373Z,5.10
2023-07-19T01:51:19.688Z,5.70
2023-07-19T01:53:52.116Z,13.30
2023-07-19T01:56:24.237Z,8.80
2023-07-19T01:58:56.215Z,5.00
2023-07-19T02:01:28.425Z,5.30
2023-07-19T02:04:00.646Z,4.40
2023-07-19T02:06:32.719Z,7.00
2023-07-19T02:09:04.782Z,6.60
2023-07-19T02:11:37.156Z,6.40
2023-07-19T02:14:09.312Z,4.30
2023-07-19T02:16:41.596Z,6.40
2023-07-19T02:19:13.914Z,6.30
2023-07-19T02:21:46.178Z,7.70
2023-07-19T02:24:19.304Z,7.60
2023-07-19T02:26:51.759Z,17.50
2023-07-19T02:29:23.679Z,4.70
2023-07-19T02:31:56.622Z,5.00
2023-07-19T02:34:28.513Z,7.70
2023-07-19T02:37:00.655Z,5.30
2023-07-19T02:39:32.660Z,5.10
2023-07-19T02:42:05.474Z,9.00
2023-07-19T02:44:37.315Z,7.60
2023-07-19T02:47:09.645Z,6.30
2023-07-19T02:49:41.675Z,6.50
2023-07-19T02:52:13.850Z,6.30
2023-07-19T02:54:45.735Z,4.80
2023-07-19T02:57:18.156Z,7.40
2023-07-19T02:59:50.080Z,5.10
2023-07-19T03:02:25.268Z,5.10
2023-07-19T03:04:58.237Z,4.80
2023-07-19T03:07:32.203Z,6.70
2023-07-19T03:10:04.441Z,6.50
2023-07-19T03:12:36.666Z,6.70
2023-07-19T03:15:10.942Z,8.00
2023-07-19T03:17:43.260Z,12.00
2023-07-19T03:20:16.656Z,9.10
2023-07-19T03:22:48.773Z,6.90
2023-07-19T03:25:20.955Z,6.50
2023-07-19T03:27:54.800Z,11.30
2023-07-19T03:30:28.199Z,9.80
2023-07-19T03:33:00.848Z,6.10
2023-07-19T03:35:32.923Z,7.40
2023-07-19T03:38:05.281Z,11.40
2023-07-19T03:40:37.113Z,5.40
2023-07-19T03:43:09.238Z,6.30
2023-07-19T03:45:41.151Z,5.20
2023-07-19T03:48:13.497Z,10.40
2023-07-19T03:50:45.536Z,6.60
2023-07-19T03:53:17.866Z,7.20
2023-07-19T03:55:57.486Z,18.90
2023-07-19T03:58:30.849Z,7.40
2023-07-19T04:01:04.512Z,6.70
2023-07-19T04:03:36.747Z,7.40
2023-07-19T04:06:08.845Z,7.00
2023-07-19T04:08:40.798Z,7.20
2023-07-19T04:11:12.841Z,6.30
2023-07-19T04:13:44.702Z,6.30
2023-07-19T04:16:16.745Z,11.50
2023-07-19T04:18:48.932Z,9.60
2023-07-19T04:21:21.562Z,6.90
2023-07-19T04:23:54.220Z,8.30
2023-07-19T04:26:26.602Z,9.80
2023-07-19T04:28:59.547Z,6.70
2023-07-19T04:31:31.393Z,7.30
2023-07-19T04:34:03.812Z,7.80
2023-07-19T04:36:35.777Z,10.40
2023-07-19T04:39:07.945Z,8.30
2023-07-19T04:41:39.904Z,6.80
2023-07-19T04:44:12.186Z,9.00
2023-07-19T04:46:44.165Z,10.10
2023-07-19T04:49:16.944Z,8.40
2023-07-19T04:51:48.931Z,9.10
2023-07-19T04:54:21.053Z,8.40
2023-07-19T04:56:52.994Z,9.20
2023-07-19T04:59:25.285Z,11.80
2023-07-19T05:01:57.196Z,14.40
2023-07-19T05:04:29.817Z,9.30
2023-07-19T05:07:01.872Z,8.20
2023-07-19T05:09:34.401Z,16.80
2023-07-19T05:12:06.984Z,7.10
2023-07-19T05:14:39.157Z,8.90
2023-07-19T05:17:11.189Z,11.80
2023-07-19T05:19:43.560Z,15.30
2023-07-19T05:22:16.543Z,8.50
2023-07-19T05:24:48.678Z,8.70
2023-07-19T05:27:22.342Z,10.50
2023-07-19T05:29:54.648Z,6.40
2023-07-19T05:32:26.539Z,10.90
2023-07-19T05:35:00.054Z,9.70
2023-07-19T05:37:32.395Z,7.70
2023-07-19T05:40:06.285Z,8.90
2023-07-19T05:42:38.653Z,16.80
2023-07-19T05:45:12.391Z,19.40
2023-07-19T05:47:44.273Z,15.50
2023-07-19T05:50:16.676Z,32.80
2023-07-19T05:52:49.175Z,14.50
2023-07-19T05:55:21.375Z,22.70
2023-07-19T05:57:53.763Z,14.60
2023-07-19T06:00:29.878Z,16.10
2023-07-19T06:03:02.065Z,12.00
2023-07-19T06:05:34.427Z,13.70
2023-07-19T06:08:14.305Z,15.90
2023-07-19T06:10:54.913Z,12.30
2023-07-19T06:13:27.175Z,16.80
2023-07-19T06:15:59.449Z,18.80
2023-07-19T06:18:31.722Z,20.30
2023-07-19T06:21:04.144Z,18.00
2023-07-19T06:23:36.113Z,16.60
2023-07-19T06:26:08.651Z,14.80
2023-07-19T06:28:40.739Z,16.40
2023-07-19T06:31:13.109Z,11.30
2023-07-19T06:33:45.028Z,13.40
2023-07-19T06:36:17.121Z,24.00
2023-07-19T06:38:49.002Z,14.40
2023-07-19T06:41:21.350Z,14.60
2023-07-19T06:43:53.697Z,11.60
2023-07-19T06:46:25.803Z,12.90
2023-07-19T06:49:00.193Z,6.70
2023-07-19T06:51:32.642Z,10.50
2023-07-19T06:54:15.044Z,13.20
2023-07-19T06:56:47.917Z,14.70
2023-07-19T06:59:19.936Z,8.60
2023-07-19T07:01:52.239Z,7.20
2023-07-19T07:04:25.429Z,8.90
2023-07-19T07:06:57.702Z,11.10
2023-07-19T07:09:31.519Z,8.80
2023-07-19T07:12:03.809Z,6.60
2023-07-19T07:14:35.705Z,3.60
2023-07-19T07:17:10.800Z,10.10
2023-07-19T07:19:42.969Z,6.00
2023-07-19T07:22:15.327Z,9.00
2023-07-19T07:24:47.405Z,6.60
2023-07-19T07:27:19.399Z,4.10
2023-07-19T07:29:51.360Z,4.70
2023-07-19T07:32:23.297Z,5.60
2023-07-19T07:34:55.283Z,4.90
2023-07-19T07:37:27.864Z,5.80
2023-07-19T07:39:59.823Z,4.00
2023-07-19T07:42:31.978Z,10.30
2023-07-19T07:45:04.309Z,4.90
2023-07-19T07:47:36.420Z,4.60
2023-07-19T07:50:11.765Z,5.30
2023-07-19T07:52:50.038Z,4.10
2023-07-19T07:55:27.454Z,2.60
2023-07-19T07:58:00.504Z,4.60
2023-07-19T08:00:32.698Z,4.20
2023-07-19T08:03:05.141Z,1.60
2023-07-19T08:05:37.467Z,2.20
2023-07-19T08:08:10.158Z,3.40
2023-07-19T08:10:42.358Z,1.60
2023-07-19T08:13:14.489Z,2.00
2023-07-19T08:15:46.610Z,2.60
2023-07-19T08:18:18.813Z,5.80
2023-07-19T08:20:52.254Z,2.00
2023-07-19T08:23:25.665Z,1.90
2023-07-19T08:26:00.194Z,2.20
2023-07-19T08:28:32.373Z,2.20
2023-07-19T08:31:04.372Z,6.90
2023-07-19T08:33:36.317Z,5.20
2023-07-19T08:36:08.836Z,3.20
2023-07-19T08:38:41.165Z,2.10
2023-07-19T08:41:15.367Z,1.40
2023-07-19T08:43:48.394Z,2.30
2023-07-19T08:46:20.515Z,3.80
2023-07-19T08:48:52.628Z,3.00
2023-07-19T08:51:24.555Z,4.10
2023-07-19T08:53:57.146Z,3.30
2023-07-19T08:56:29.412Z,1.80
2023-07-19T08:59:01.457Z,1.80
2023-07-19T09:01:33.359Z,2.20
2023-07-19T09:04:11.648Z,2.00
2023-07-19T09:06:46.598Z,2.70
2023-07-19T09:09:20.740Z,1.20
2023-07-19T09:11:52.726Z,2.90
2023-07-19T09:14:37.104Z,3.50
2023-07-19T09:17:09.422Z,3.80
2023-07-19T09:19:45.816Z,3.00
2023-07-19T09:22:19.849Z,1.80
2023-07-19T09:25:02.656Z,3.80
2023-07-19T09:27:35.046Z,1.00
2023-07-19T09:30:12.674Z,2.20
2023-07-19T09:32:45.247Z,2.70
2023-07-19T09:35:17.296Z,4.40
2023-07-19T09:37:49.470Z,2.00
2023-07-19T09:40:22.045Z,1.30
2023-07-19T09:42:54.072Z,2.40
2023-07-19T09:45:30.085Z,2.80
2023-07-19T09:48:03.431Z,6.10
2023-07-19T09:50:36.227Z,1.80
2023-07-19T09:53:08.570Z,3.00
2023-07-19T09:55:41.200Z,1.70
2023-07-19T09:58:16.614Z,2.00
2023-07-19T10:00:49.204Z,2.40
2023-07-19T10:03:23.607Z,6.60
2023-07-19T10:05:59.953Z,5.70
2023-07-19T10:08:32.387Z,2.00
2023-07-19T10:11:05.017Z,2.80
2023-07-19T10:14:06.615Z,6.10
2023-07-19T10:16:40.958Z,2.00
2023-07-19T10:19:13.757Z,1.90
2023-07-19T10:22:04.755Z,5.30
2023-07-19T10:24:38.026Z,3.40
2023-07-19T10:27:11.613Z,5.40
2023-07-19T10:32:17.115Z,1.70
2023-07-19T10:34:51.124Z,4.70
2023-07-19T10:37:23.679Z,1.50
2023-07-19T10:39:55.583Z,3.20
2023-07-19T10:42:28.014Z,4.00
2023-07-19T10:45:02.396Z,2.20
2023-07-19T10:47:34.645Z,3.70
2023-07-19T10:50:08.568Z,2.40
2023-07-19T10:52:40.853Z,4.10
2023-07-19T10:55:38.365Z,2.50
2023-07-19T10:58:08.207Z,3.10
2023-07-19T11:03:16.165Z,1.90
2023-07-19T11:05:51.308Z,2.10
2023-07-19T11:08:27.343Z,2.40
2023-07-19T11:11:00.428Z,5.40
2023-07-19T11:13:32.853Z,2.20
2023-07-19T11:16:05.048Z,1.70
2023-07-19T11:18:41.653Z,1.80
2023-07-19T11:21:13.803Z,3.00
2023-07-19T11:23:46.757Z,3.80
2023-07-19T11:26:21.233Z,2.20
2023-07-19T11:28:55.447Z,1.80
2023-07-19T11:31:35.370Z,1.90
2023-07-19T11:34:10.685Z,10.70
2023-07-19T11:36:45.865Z,4.50
2023-07-19T11:39:18.621Z,2.00
2023-07-19T11:41:50.892Z,2.40
2023-07-19T11:44:25.187Z,3.30
2023-07-19T11:46:59.343Z,2.30
2023-07-19T11:49:31.726Z,9.90
2023-07-19T11:52:03.708Z,5.20
2023-07-19T11:54:35.875Z,5.40
2023-07-19T11:57:09.103Z,5.30
2023-07-19T12:02:11.933Z,2.10
2023-07-19T12:04:43.791Z,2.40
2023-07-19T12:07:15.613Z,2.10
2023-07-19T12:09:47.604Z,2.30
2023-07-19T12:12:19.871Z,3.40
2023-07-19T12:14:52.037Z,3.00
2023-07-19T12:17:24.463Z,2.80
2023-07-19T12:19:57.692Z,1.60
2023-07-19T12:22:30.041Z,2.30
2023-07-19T12:25:02.061Z,1.90
2023-07-19T12:27:34.475Z,3.20
2023-07-19T12:30:11.559Z,4.30
2023-07-19T12:32:43.773Z,3.80
2023-07-19T12:35:15.795Z,3.60
2023-07-19T12:37:48.504Z,4.30
2023-07-19T12:40:20.599Z,4.60
2023-07-19T12:42:52.633Z,3.30
2023-07-19T12:45:24.757Z,2.90
2023-07-19T12:47:56.712Z,3.60
2023-07-19T12:50:29.613Z,1.90
2023-07-19T12:53:01.619Z,2.30
2023-07-19T12:55:33.665Z,2.10
2023-07-19T12:58:05.655Z,6.10
2023-07-19T13:00:38.248Z,1.80
2023-07-19T13:03:10.808Z,6.00
2023-07-19T13:05:43.678Z,2.10
2023-07-19T13:08:15.638Z,2.00
2023-07-19T13:10:47.832Z,2.50
2023-07-19T13:13:19.930Z,2.90
2023-07-19T13:15:51.932Z,4.20
2023-07-19T13:18:24.045Z,1.90
2023-07-19T13:20:56.014Z,1.80
2023-07-19T13:23:28.408Z,3.50
2023-07-19T13:26:01.679Z,3.40
2023-07-19T13:31:04.318Z,4.40
2023-07-19T13:33:36.275Z,1.50
2023-07-19T13:38:43.166Z,3.20
2023-07-19T13:41:15.100Z,2.20
2023-07-19T13:43:47.203Z,6.30
2023-07-19T13:46:19.789Z,1.70
2023-07-19T13:48:52.042Z,4.70
2023-07-19T13:51:23.952Z,4.70
2023-07-19T13:53:55.757Z,3.70
2023-07-19T13:56:27.821Z,1.60
2023-07-19T13:58:59.881Z,3.50
2023-07-19T14:01:32.148Z,6.50
2023-07-19T14:04:04.344Z,4.80
2023-07-19T14:09:11.185Z,2.80
2023-07-19T14:11:45.139Z,4.40
2023-07-19T14:14:17.946Z,2.20
2023-07-19T14:16:52.593Z,3.30
2023-07-19T14:19:24.963Z,2.10
2023-07-19T14:21:57.181Z,5.90
2023-07-19T14:24:29.267Z,2.30
2023-07-19T14:27:01.277Z,3.20
2023-07-19T14:29:33.343Z,2.40
2023-07-19T14:32:05.783Z,2.20
2023-07-19T14:34:40.076Z,3.40
2023-07-19T14:37:18.504Z,2.10
2023-07-19T14:39:50.505Z,3.30
2023-07-19T14:42:22.345Z,2.90
2023-07-19T14:44:54.450Z,2.50
2023-07-19T14:47:26.620Z,1.90
2023-07-19T14:50:00.132Z,2.50
2023-07-19T14:52:32.062Z,3.90
2023-07-19T14:55:05.378Z,3.20
2023-07-19T14:57:37.331Z,1.90
2023-07-19T15:00:14.388Z,3.40
2023-07-19T15:02:59.255Z,2.50
2023-07-19T15:05:32.329Z,5.00
2023-07-19T15:08:04.981Z,4.70
2023-07-19T15:10:36.948Z,5.90
2023-07-19T15:13:11.448Z,5.10
2023-07-19T15:15:46.003Z,4.00
2023-07-19T15:18:19.135Z,2.40
2023-07-19T15:23:23.290Z,2.00
2023-07-19T15:25:55.626Z,2.00
2023-07-19T15:28:30.126Z,5.20
2023-07-19T15:31:05.160Z,3.90
2023-07-19T15:33:37.336Z,3.80
2023-07-19T15:36:09.388Z,2.80
2023-07-19T15:38:43.388Z,2.00
2023-07-19T15:41:15.937Z,3.00
2023-07-19T15:43:48.414Z,2.30
2023-07-19T15:46:20.673Z,2.30
2023-07-19T15:48:52.917Z,2.50
2023-07-19T15:51:24.875Z,2.10
2023-07-19T15:53:56.750Z,2.30
2023-07-19T15:56:28.692Z,3.70
2023-07-19T15:59:00.552Z,2.80
2023-07-19T16:01:32.752Z,4.00
2023-07-19T16:04:05.015Z,3.20
2023-07-19T16:06:37.392Z,2.70
2023-07-19T16:09:09.619Z,4.00
2023-07-19T16:11:41.477Z,3.00
2023-07-19T16:14:13.650Z,2.00
2023-07-19T16:16:45.529Z,2.30
2023-07-19T16:19:18.543Z,2.10
2023-07-19T16:21:50.453Z,2.20
2023-07-19T16:24:22.382Z,1.80
2023-07-19T16:26:54.552Z,7.30
2023-07-19T16:29:26.583Z,1.40
2023-07-19T16:31:58.585Z,2.70
2023-07-19T16:34:30.571Z,1.80
2023-07-19T16:37:04.643Z,5.00
2023-07-19T16:39:38.814Z,3.10
2023-07-19T16:42:11.130Z,3.50
2023-07-19T16:44:43.271Z,8.00
2023-07-19T16:47:15.270Z,4.10
2023-07-19T16:49:47.225Z,4.50
2023-07-19T16:52:19.051Z,9.30
2023-07-19T16:54:50.909Z,3.00
2023-07-19T16:57:22.896Z,3.40
2023-07-19T17:00:10.355Z,2.50
2023-07-19T17:02:46.716Z,1.70
2023-07-19T17:05:19.324Z,2.10
2023-07-19T17:07:51.475Z,2.90
2023-07-19T17:10:23.570Z,2.40
2023-07-19T17:12:55.428Z,5.10
2023-07-19T17:15:27.316Z,5.20
2023-07-19T17:18:00.833Z,4.20
2023-07-19T17:20:34.851Z,3.60
2023-07-19T17:23:07.353Z,6.60
2023-07-19T17:25:39.356Z,1.90
2023-07-19T17:28:11.326Z,4.20
2023-07-19T17:30:44.468Z,4.40
2023-07-19T17:33:16.291Z,1.80
2023-07-19T17:35:48.685Z,5.30
2023-07-19T17:38:20.537Z,4.50
2023-07-19T17:40:52.493Z,3.30
2023-07-19T17:43:24.784Z,3.60
2023-07-19T17:45:57.397Z,3.30
2023-07-19T17:48:29.417Z,2.50
2023-07-19T17:51:01.602Z,9.00
2023-07-19T17:53:33.649Z,2.70
2023-07-19T17:56:05.786Z,2.60
2023-07-19T17:58:39.024Z,3.10
2023-07-19T18:01:11.246Z,5.20
2023-07-19T18:03:43.178Z,4.60
2023-07-19T18:06:15.220Z,1.90
2023-07-19T18:08:47.560Z,2.10
2023-07-19T18:11:20.194Z,2.60
2023-07-19T18:13:53.324Z,5.40
2023-07-19T18:16:25.343Z,4.20
2023-07-19T18:18:57.185Z,2.30
2023-07-19T18:21:29.423Z,5.90
2023-07-19T18:24:01.347Z,6.40
2023-07-19T18:26:33.525Z,10.40
2023-07-19T18:29:05.459Z,5.00
2023-07-19T18:31:37.468Z,4.40
2023-07-19T18:34:09.306Z,4.60
2023-07-19T18:36:41.325Z,5.70
2023-07-19T18:39:13.488Z,3.70
2023-07-19T18:41:45.620Z,5.30
2023-07-19T18:44:17.570Z,7.70
2023-07-19T18:46:50.702Z,10.60
2023-07-19T18:49:22.894Z,2.40
2023-07-19T18:51:54.970Z,3.10
2023-07-19T18:54:28.833Z,3.30
2023-07-19T18:57:02.972Z,3.40
2023-07-19T18:59:36.316Z,5.00
2023-07-19T19:02:09.497Z,3.80
2023-07-19T19:04:41.611Z,3.30
2023-07-19T19:07:13.652Z,4.60
2023-07-19T19:09:45.667Z,7.50
2023-07-19T19:12:17.929Z,5.20
2023-07-19T19:14:50.105Z,4.10
2023-07-19T19:17:22.010Z,5.30
2023-07-19T19:19:53.851Z,7.20
2023-07-19T19:22:26.045Z,4.10
2023-07-19T19:24:58.317Z,7.10
2023-07-19T19:27:30.364Z,3.50
2023-07-19T19:30:02.437Z,7.60
2023-07-19T19:32:34.684Z,6.20
2023-07-19T19:35:07.341Z,2.40
2023-07-19T19:37:39.504Z,7.70
2023-07-19T19:40:13.047Z,3.80
2023-07-19T19:42:46.094Z,4.60
2023-07-19T19:45:18.021Z,6.30
2023-07-19T19:47:50.650Z,31.10
2023-07-19T19:50:24.237Z,8.10
2023-07-19T19:53:09.305Z,13.30
2023-07-19T19:58:18.288Z,4.60
2023-07-19T20:00:50.141Z,4.10
2023-07-19T20:05:56.928Z,7.10
2023-07-19T20:08:29.163Z,5.10
2023-07-19T20:11:01.287Z,6.60
2023-07-19T20:13:33.310Z,3.10
2023-07-19T20:16:05.358Z,5.10
2023-07-19T20:21:12.300Z,4.20
2023-07-19T20:23:44.560Z,3.90
2023-07-19T20:26:17.407Z,7.40
2023-07-19T20:29:26.270Z,5.40
2023-07-19T20:42:12.873Z,3.80
2023-07-19T20:44:44.982Z,4.40
2023-07-19T20:47:18.567Z,3.80
2023-07-19T20:49:52.343Z,4.30
2023-07-19T20:52:24.584Z,4.00
2023-07-19T20:54:56.668Z,4.50
2023-07-19T20:57:28.652Z,2.70
2023-07-19T21:00:00.627Z,7.00
2023-07-19T21:02:32.558Z,5.10
2023-07-19T21:05:05.097Z,6.60
2023-07-19T21:07:37.389Z,3.20
2023-07-19T21:10:10.893Z,6.60
2023-07-19T21:12:43.055Z,6.80
2023-07-19T21:15:15.658Z,4.70
2023-07-19T21:17:47.914Z,5.40
2023-07-19T21:20:20.055Z,4.10
2023-07-19T21:22:52.270Z,7.10
2023-07-19T21:25:24.397Z,3.10
2023-07-19T21:27:56.297Z,8.20
2023-07-19T21:30:28.238Z,3.50
2023-07-19T21:33:00.178Z,4.20
2023-07-19T21:35:32.117Z,4.80
2023-07-19T21:38:05.263Z,3.50
2023-07-19T21:40:37.384Z,5.30
2023-07-19T21:43:09.517Z,3.30
2023-07-19T21:45:42.546Z,3.20
2023-07-19T21:48:14.739Z,4.70
2023-07-19T21:50:49.056Z,3.80
2023-07-19T21:53:23.967Z,7.90
2023-07-19T21:55:56.078Z,3.60
2023-07-19T21:58:28.587Z,6.50
2023-07-19T22:01:00.516Z,5.60
2023-07-19T22:03:32.665Z,4.50
2023-07-19T22:06:05.440Z,5.00
2023-07-19T22:08:37.271Z,9.10
2023-07-19T22:11:09.293Z,15.20
2023-07-19T22:13:43.211Z,5.40
2023-07-19T22:16:15.179Z,4.20
2023-07-19T22:18:47.623Z,3.50
2023-07-19T22:21:22.355Z,4.90
2023-07-19T22:23:54.704Z,5.90
2023-07-19T22:26:26.857Z,2.40
2023-07-19T22:29:03.944Z,5.00
2023-07-19T22:31:36.862Z,5.20
2023-07-19T22:34:08.806Z,3.80
2023-07-19T22:36:40.661Z,6.70
2023-07-19T22:39:12.626Z,5.10
2023-07-19T22:41:44.596Z,5.70
2023-07-19T22:44:16.431Z,5.70
2023-07-19T22:46:48.325Z,5.50
2023-07-19T22:49:21.322Z,3.90
2023-07-19T22:51:54.405Z,4.80
2023-07-19T22:54:26.360Z,3.70
2023-07-19T22:56:58.457Z,3.00
2023-07-19T22:59:30.259Z,6.90
2023-07-19T23:02:02.166Z,7.80
2023-07-19T23:04:33.976Z,5.50
2023-07-19T23:07:06.180Z,5.40
2023-07-19T23:09:38.055Z,3.70
2023-07-19T23:12:10.900Z,3.50
2023-07-19T23:14:42.957Z,7.70
2023-07-19T23:17:14.972Z,10.30
2023-07-19T23:19:48.150Z,4.30
2023-07-19T23:22:20.724Z,5.00
2023-07-19T23:24:52.901Z,4.90
2023-07-19T23:27:24.863Z,3.30
2023-07-19T23:29:56.794Z,6.50
2023-07-19T23:32:28.630Z,3.70
2023-07-19T23:35:00.642Z,3.40
2023-07-19T23:37:32.612Z,3.90
2023-07-19T23:40:06.759Z,4.20
2023-07-19T23:42:38.862Z,6.20
2023-07-19T23:45:12.280Z,6.30
2023-07-19T23:47:44.175Z,3.10
2023-07-19T23:50:16.014Z,3.20
2023-07-19T23:52:47.791Z,5.00
2023-07-19T23:55:19.732Z,8.00
2023-07-19T23:57:51.714Z,6.90
